Terminal Aerodrome Forecast
Issued by NWS

Home | Current Version | Previous Version | Text Only | Print | Product List | Glossary On
Versions: 1 2 3 4 5 6 7 8 9 10 11 12 13
171
FTUS45 KABQ 211122
TAFTCC
TAF
KTCC 211122Z 2112/2212 23012KT P6SM SKC
     FM211500 21012G20KT P6SM FEW090
     FM220100 19008KT P6SM SKC=

USA.gov is the U.S. government's official web portal to all federal, state and local government web resources and services.